sensor_id;sensor_type;location;lat;lon;timestamp;P1;durP1;ratioP1;P2;durP2;ratioP2
60344;SDS011;46188;52.324;8.032;2024-03-08T00:01:24;29.23;;;16.27;;
60344;SDS011;46188;52.324;8.032;2024-03-08T00:03:50;26.20;;;14.73;;
60344;SDS011;46188;52.324;8.032;2024-03-08T00:06:17;24.25;;;14.68;;
60344;SDS011;46188;52.324;8.032;2024-03-08T00:08:42;29.25;;;17.20;;
60344;SDS011;46188;52.324;8.032;2024-03-08T00:11:07;33.58;;;16.77;;
60344;SDS011;46188;52.324;8.032;2024-03-08T00:13:33;30.73;;;15.65;;
60344;SDS011;46188;52.324;8.032;2024-03-08T00:15:59;28.20;;;15.70;;
60344;SDS011;46188;52.324;8.032;2024-03-08T00:18:24;23.95;;;15.18;;
60344;SDS011;46188;52.324;8.032;2024-03-08T00:20:49;29.35;;;17.73;;
60344;SDS011;46188;52.324;8.032;2024-03-08T00:23:15;23.88;;;15.00;;
60344;SDS011;46188;52.324;8.032;2024-03-08T00:25:41;32.35;;;16.10;;
60344;SDS011;46188;52.324;8.032;2024-03-08T00:28:06;26.55;;;15.95;;
60344;SDS011;46188;52.324;8.032;2024-03-08T00:30:31;25.20;;;15.57;;
60344;SDS011;46188;52.324;8.032;2024-03-08T00:32:57;27.17;;;15.73;;
60344;SDS011;46188;52.324;8.032;2024-03-08T00:35:22;27.45;;;15.63;;
60344;SDS011;46188;52.324;8.032;2024-03-08T00:37:48;27.30;;;14.98;;
60344;SDS011;46188;52.324;8.032;2024-03-08T00:40:13;25.20;;;15.35;;
60344;SDS011;46188;52.324;8.032;2024-03-08T00:42:39;25.35;;;15.10;;
60344;SDS011;46188;52.324;8.032;2024-03-08T00:45:06;25.02;;;15.50;;
60344;SDS011;46188;52.324;8.032;2024-03-08T00:47:31;28.20;;;16.02;;
60344;SDS011;46188;52.324;8.032;2024-03-08T00:49:57;26.67;;;15.57;;
60344;SDS011;46188;52.324;8.032;2024-03-08T00:52:22;30.02;;;16.05;;
60344;SDS011;46188;52.324;8.032;2024-03-08T00:54:49;26.77;;;15.40;;
60344;SDS011;46188;52.324;8.032;2024-03-08T00:57:14;28.27;;;15.07;;
60344;SDS011;46188;52.324;8.032;2024-03-08T00:59:39;24.23;;;14.20;;
60344;SDS011;46188;52.324;8.032;2024-03-08T01:02:05;25.15;;;15.70;;
60344;SDS011;46188;52.324;8.032;2024-03-08T01:04:31;24.27;;;14.77;;
60344;SDS011;46188;52.324;8.032;2024-03-08T01:06:57;26.88;;;15.63;;
60344;SDS011;46188;52.324;8.032;2024-03-08T01:09:25;25.63;;;16.30;;
60344;SDS011;46188;52.324;8.032;2024-03-08T01:11:52;27.48;;;14.45;;
60344;SDS011;46188;52.324;8.032;2024-03-08T01:14:19;27.42;;;14.60;;
60344;SDS011;46188;52.324;8.032;2024-03-08T01:16:47;34.58;;;15.50;;
60344;SDS011;46188;52.324;8.032;2024-03-08T01:19:12;26.70;;;17.27;;
60344;SDS011;46188;52.324;8.032;2024-03-08T01:21:38;26.35;;;15.20;;
60344;SDS011;46188;52.324;8.032;2024-03-08T01:24:03;29.48;;;15.55;;
60344;SDS011;46188;52.324;8.032;2024-03-08T01:26:29;24.98;;;15.57;;
60344;SDS011;46188;52.324;8.032;2024-03-08T01:28:54;25.27;;;15.60;;
60344;SDS011;46188;52.324;8.032;2024-03-08T01:31:20;23.20;;;14.20;;
60344;SDS011;46188;52.324;8.032;2024-03-08T01:33:45;26.23;;;16.50;;
60344;SDS011;46188;52.324;8.032;2024-03-08T01:36:10;25.35;;;15.00;;
60344;SDS011;46188;52.324;8.032;2024-03-08T01:38:36;28.67;;;16.13;;
60344;SDS011;46188;52.324;8.032;2024-03-08T01:41:01;27.58;;;15.95;;
60344;SDS011;46188;52.324;8.032;2024-03-08T01:43:27;27.40;;;15.55;;
60344;SDS011;46188;52.324;8.032;2024-03-08T01:45:54;27.15;;;15.30;;
60344;SDS011;46188;52.324;8.032;2024-03-08T01:48:22;26.38;;;16.63;;
60344;SDS011;46188;52.324;8.032;2024-03-08T01:50:49;28.05;;;14.98;;
60344;SDS011;46188;52.324;8.032;2024-03-08T01:53:15;31.60;;;16.50;;
60344;SDS011;46188;52.324;8.032;2024-03-08T01:55:42;30.73;;;16.63;;
60344;SDS011;46188;52.324;8.032;2024-03-08T01:58:11;29.55;;;16.73;;
60344;SDS011;46188;52.324;8.032;2024-03-08T02:00:36;27.52;;;15.35;;
60344;SDS011;46188;52.324;8.032;2024-03-08T02:03:05;28.38;;;16.45;;
60344;SDS011;46188;52.324;8.032;2024-03-08T02:05:30;28.73;;;16.85;;
60344;SDS011;46188;52.324;8.032;2024-03-08T02:07:56;28.20;;;16.33;;
60344;SDS011;46188;52.324;8.032;2024-03-08T02:10:22;31.08;;;16.85;;
60344;SDS011;46188;52.324;8.032;2024-03-08T02:12:47;26.88;;;16.50;;
60344;SDS011;46188;52.324;8.032;2024-03-08T02:15:13;26.98;;;16.20;;
60344;SDS011;46188;52.324;8.032;2024-03-08T02:17:38;29.65;;;16.85;;
60344;SDS011;46188;52.324;8.032;2024-03-08T02:20:04;31.58;;;16.27;;
60344;SDS011;46188;52.324;8.032;2024-03-08T02:22:30;26.65;;;16.52;;
60344;SDS011;46188;52.324;8.032;2024-03-08T02:24:56;29.40;;;16.80;;
60344;SDS011;46188;52.324;8.032;2024-03-08T02:27:23;26.90;;;15.85;;
60344;SDS011;46188;52.324;8.032;2024-03-08T02:29:50;28.83;;;17.35;;
60344;SDS011;46188;52.324;8.032;2024-03-08T02:32:20;29.98;;;16.45;;
60344;SDS011;46188;52.324;8.032;2024-03-08T02:34:46;28.88;;;16.40;;
60344;SDS011;46188;52.324;8.032;2024-03-08T02:37:11;32.53;;;16.70;;
60344;SDS011;46188;52.324;8.032;2024-03-08T02:39:36;25.17;;;16.67;;
60344;SDS011;46188;52.324;8.032;2024-03-08T02:42:01;30.17;;;17.27;;
60344;SDS011;46188;52.324;8.032;2024-03-08T02:44:26;30.73;;;17.50;;
60344;SDS011;46188;52.324;8.032;2024-03-08T02:46:52;27.35;;;17.15;;
60344;SDS011;46188;52.324;8.032;2024-03-08T02:49:20;27.98;;;17.80;;
60344;SDS011;46188;52.324;8.032;2024-03-08T02:51:45;31.05;;;17.23;;
60344;SDS011;46188;52.324;8.032;2024-03-08T02:54:11;29.88;;;17.40;;
60344;SDS011;46188;52.324;8.032;2024-03-08T02:56:36;27.85;;;17.13;;
60344;SDS011;46188;52.324;8.032;2024-03-08T02:59:02;29.38;;;16.52;;
60344;SDS011;46188;52.324;8.032;2024-03-08T03:01:27;28.25;;;17.38;;
60344;SDS011;46188;52.324;8.032;2024-03-08T03:03:53;29.30;;;17.60;;
60344;SDS011;46188;52.324;8.032;2024-03-08T03:06:18;27.70;;;17.30;;
60344;SDS011;46188;52.324;8.032;2024-03-08T03:08:45;32.55;;;17.55;;
60344;SDS011;46188;52.324;8.032;2024-03-08T03:11:11;33.60;;;17.10;;
60344;SDS011;46188;52.324;8.032;2024-03-08T03:13:38;28.60;;;16.60;;
60344;SDS011;46188;52.324;8.032;2024-03-08T03:16:03;30.60;;;16.92;;
60344;SDS011;46188;52.324;8.032;2024-03-08T03:18:29;33.03;;;17.42;;
60344;SDS011;46188;52.324;8.032;2024-03-08T03:20:54;30.38;;;17.40;;
60344;SDS011;46188;52.324;8.032;2024-03-08T03:23:19;28.88;;;16.88;;
60344;SDS011;46188;52.324;8.032;2024-03-08T03:25:45;31.88;;;17.67;;
60344;SDS011;46188;52.324;8.032;2024-03-08T03:28:11;28.52;;;16.50;;
60344;SDS011;46188;52.324;8.032;2024-03-08T03:30:39;29.73;;;17.48;;
60344;SDS011;46188;52.324;8.032;2024-03-08T03:33:04;28.17;;;15.68;;
60344;SDS011;46188;52.324;8.032;2024-03-08T03:35:33;30.65;;;17.02;;
60344;SDS011;46188;52.324;8.032;2024-03-08T03:37:59;25.42;;;16.83;;
60344;SDS011;46188;52.324;8.032;2024-03-08T03:40:31;28.63;;;16.42;;
60344;SDS011;46188;52.324;8.032;2024-03-08T03:42:57;27.13;;;16.38;;
60344;SDS011;46188;52.324;8.032;2024-03-08T03:45:23;27.98;;;16.85;;
60344;SDS011;46188;52.324;8.032;2024-03-08T03:47:48;32.10;;;16.80;;
60344;SDS011;46188;52.324;8.032;2024-03-08T03:50:14;32.13;;;17.27;;
60344;SDS011;46188;52.324;8.032;2024-03-08T03:52:39;29.60;;;16.60;;
60344;SDS011;46188;52.324;8.032;2024-03-08T03:55:04;28.45;;;15.95;;
60344;SDS011;46188;52.324;8.032;2024-03-08T03:57:30;26.15;;;16.02;;
60344;SDS011;46188;52.324;8.032;2024-03-08T03:59:56;29.05;;;17.27;;
60344;SDS011;46188;52.324;8.032;2024-03-08T04:02:23;24.60;;;16.05;;
60344;SDS011;46188;52.324;8.032;2024-03-08T04:04:49;32.45;;;17.88;;
60344;SDS011;46188;52.324;8.032;2024-03-08T04:07:14;33.60;;;18.23;;
60344;SDS011;46188;52.324;8.032;2024-03-08T04:09:39;31.48;;;17.42;;
60344;SDS011;46188;52.324;8.032;2024-03-08T04:12:05;30.58;;;16.38;;
60344;SDS011;46188;52.324;8.032;2024-03-08T04:14:30;31.42;;;17.30;;
60344;SDS011;46188;52.324;8.032;2024-03-08T04:16:55;27.55;;;16.30;;
60344;SDS011;46188;52.324;8.032;2024-03-08T04:19:21;25.45;;;16.20;;
60344;SDS011;46188;52.324;8.032;2024-03-08T04:21:47;28.77;;;16.75;;
60344;SDS011;46188;52.324;8.032;2024-03-08T04:24:12;26.55;;;16.38;;
60344;SDS011;46188;52.324;8.032;2024-03-08T04:26:37;34.65;;;17.42;;
60344;SDS011;46188;52.324;8.032;2024-03-08T04:29:03;29.75;;;16.55;;
60344;SDS011;46188;52.324;8.032;2024-03-08T04:31:28;33.03;;;17.90;;
60344;SDS011;46188;52.324;8.032;2024-03-08T04:33:55;28.88;;;17.02;;
60344;SDS011;46188;52.324;8.032;2024-03-08T04:36:21;31.13;;;18.33;;
60344;SDS011;46188;52.324;8.032;2024-03-08T04:38:46;29.35;;;17.10;;
60344;SDS011;46188;52.324;8.032;2024-03-08T04:41:12;28.42;;;17.23;;
60344;SDS011;46188;52.324;8.032;2024-03-08T04:43:37;35.58;;;17.73;;
60344;SDS011;46188;52.324;8.032;2024-03-08T04:46:02;31.05;;;16.58;;
60344;SDS011;46188;52.324;8.032;2024-03-08T04:48:28;37.28;;;18.15;;
60344;SDS011;46188;52.324;8.032;2024-03-08T04:50:54;31.20;;;17.17;;
60344;SDS011;46188;52.324;8.032;2024-03-08T04:53:20;31.13;;;16.80;;
60344;SDS011;46188;52.324;8.032;2024-03-08T04:55:46;30.98;;;17.85;;
60344;SDS011;46188;52.324;8.032;2024-03-08T04:58:11;31.20;;;17.30;;
60344;SDS011;46188;52.324;8.032;2024-03-08T05:00:36;31.30;;;17.73;;
60344;SDS011;46188;52.324;8.032;2024-03-08T05:03:01;29.02;;;17.30;;
60344;SDS011;46188;52.324;8.032;2024-03-08T05:05:27;33.97;;;17.23;;
60344;SDS011;46188;52.324;8.032;2024-03-08T05:07:54;31.48;;;17.55;;
60344;SDS011;46188;52.324;8.032;2024-03-08T05:10:19;29.48;;;17.00;;
60344;SDS011;46188;52.324;8.032;2024-03-08T05:12:44;32.53;;;18.13;;
60344;SDS011;46188;52.324;8.032;2024-03-08T05:15:10;30.45;;;16.73;;
60344;SDS011;46188;52.324;8.032;2024-03-08T05:17:35;32.58;;;17.48;;
60344;SDS011;46188;52.324;8.032;2024-03-08T05:20:00;30.05;;;15.90;;
60344;SDS011;46188;52.324;8.032;2024-03-08T05:22:26;27.63;;;16.80;;
60344;SDS011;46188;52.324;8.032;2024-03-08T05:24:51;27.73;;;16.65;;
60344;SDS011;46188;52.324;8.032;2024-03-08T05:27:16;30.67;;;16.25;;
60344;SDS011;46188;52.324;8.032;2024-03-08T05:29:42;28.77;;;16.77;;
60344;SDS011;46188;52.324;8.032;2024-03-08T05:32:07;31.95;;;16.88;;
60344;SDS011;46188;52.324;8.032;2024-03-08T05:34:32;34.17;;;16.70;;
60344;SDS011;46188;52.324;8.032;2024-03-08T05:36:57;33.75;;;17.55;;
60344;SDS011;46188;52.324;8.032;2024-03-08T05:39:23;27.80;;;15.57;;
60344;SDS011;46188;52.324;8.032;2024-03-08T05:41:49;30.33;;;16.65;;
60344;SDS011;46188;52.324;8.032;2024-03-08T05:44:15;26.95;;;16.05;;
60344;SDS011;46188;52.324;8.032;2024-03-08T05:46:44;34.10;;;16.15;;
60344;SDS011;46188;52.324;8.032;2024-03-08T05:49:09;26.13;;;16.08;;
60344;SDS011;46188;52.324;8.032;2024-03-08T05:51:35;32.28;;;16.90;;
60344;SDS011;46188;52.324;8.032;2024-03-08T05:54:04;29.75;;;16.58;;
60344;SDS011;46188;52.324;8.032;2024-03-08T05:56:33;27.85;;;17.08;;
60344;SDS011;46188;52.324;8.032;2024-03-08T05:58:59;33.80;;;16.48;;
60344;SDS011;46188;52.324;8.032;2024-03-08T06:01:25;29.77;;;17.00;;
60344;SDS011;46188;52.324;8.032;2024-03-08T06:03:51;29.83;;;17.55;;
60344;SDS011;46188;52.324;8.032;2024-03-08T06:06:19;29.45;;;17.52;;
60344;SDS011;46188;52.324;8.032;2024-03-08T06:08:46;33.95;;;17.17;;
60344;SDS011;46188;52.324;8.032;2024-03-08T06:11:13;26.90;;;16.73;;
60344;SDS011;46188;52.324;8.032;2024-03-08T06:13:43;30.10;;;16.17;;
60344;SDS011;46188;52.324;8.032;2024-03-08T06:16:09;31.30;;;16.88;;
60344;SDS011;46188;52.324;8.032;2024-03-08T06:18:35;28.55;;;16.33;;
60344;SDS011;46188;52.324;8.032;2024-03-08T06:21:07;29.77;;;17.35;;
60344;SDS011;46188;52.324;8.032;2024-03-08T06:23:34;33.47;;;16.73;;
60344;SDS011;46188;52.324;8.032;2024-03-08T06:26:06;32.13;;;17.05;;
60344;SDS011;46188;52.324;8.032;2024-03-08T06:28:31;31.65;;;16.77;;
60344;SDS011;46188;52.324;8.032;2024-03-08T06:30:57;31.00;;;17.42;;
60344;SDS011;46188;52.324;8.032;2024-03-08T06:33:23;32.97;;;16.95;;
60344;SDS011;46188;52.324;8.032;2024-03-08T06:35:51;32.55;;;18.05;;
60344;SDS011;46188;52.324;8.032;2024-03-08T06:38:16;32.67;;;19.23;;
60344;SDS011;46188;52.324;8.032;2024-03-08T06:40:42;29.92;;;17.92;;
60344;SDS011;46188;52.324;8.032;2024-03-08T06:43:07;36.03;;;18.63;;
60344;SDS011;46188;52.324;8.032;2024-03-08T06:45:32;30.85;;;18.55;;
60344;SDS011;46188;52.324;8.032;2024-03-08T06:47:57;30.55;;;18.00;;
60344;SDS011;46188;52.324;8.032;2024-03-08T06:50:23;40.33;;;18.73;;
60344;SDS011;46188;52.324;8.032;2024-03-08T06:52:48;28.05;;;18.50;;
60344;SDS011;46188;52.324;8.032;2024-03-08T06:55:18;31.00;;;16.60;;
60344;SDS011;46188;52.324;8.032;2024-03-08T06:57:44;36.08;;;18.75;;
60344;SDS011;46188;52.324;8.032;2024-03-08T07:00:09;32.97;;;17.85;;
60344;SDS011;46188;52.324;8.032;2024-03-08T07:02:36;31.95;;;18.23;;
60344;SDS011;46188;52.324;8.032;2024-03-08T07:05:04;33.17;;;18.48;;
60344;SDS011;46188;52.324;8.032;2024-03-08T07:07:30;36.78;;;18.13;;
60344;SDS011;46188;52.324;8.032;2024-03-08T07:09:56;33.85;;;18.17;;
60344;SDS011;46188;52.324;8.032;2024-03-08T07:12:22;33.63;;;18.25;;
60344;SDS011;46188;52.324;8.032;2024-03-08T07:14:48;32.55;;;17.27;;
60344;SDS011;46188;52.324;8.032;2024-03-08T07:17:13;30.35;;;17.30;;
60344;SDS011;46188;52.324;8.032;2024-03-08T07:19:38;35.72;;;18.40;;
60344;SDS011;46188;52.324;8.032;2024-03-08T07:22:04;34.47;;;19.25;;
60344;SDS011;46188;52.324;8.032;2024-03-08T07:24:33;37.13;;;18.75;;
60344;SDS011;46188;52.324;8.032;2024-03-08T07:27:17;38.03;;;18.63;;
60344;SDS011;46188;52.324;8.032;2024-03-08T07:29:42;30.67;;;16.92;;
60344;SDS011;46188;52.324;8.032;2024-03-08T07:32:08;33.78;;;16.83;;
60344;SDS011;46188;52.324;8.032;2024-03-08T07:34:50;29.10;;;17.33;;
60344;SDS011;46188;52.324;8.032;2024-03-08T07:37:16;31.52;;;18.38;;
60344;SDS011;46188;52.324;8.032;2024-03-08T07:39:42;32.90;;;19.00;;
60344;SDS011;46188;52.324;8.032;2024-03-08T07:42:08;30.50;;;19.15;;
60344;SDS011;46188;52.324;8.032;2024-03-08T07:44:34;33.75;;;18.35;;
60344;SDS011;46188;52.324;8.032;2024-03-08T07:47:00;32.90;;;17.60;;
60344;SDS011;46188;52.324;8.032;2024-03-08T07:49:25;34.65;;;18.45;;
60344;SDS011;46188;52.324;8.032;2024-03-08T07:51:50;35.60;;;18.25;;
60344;SDS011;46188;52.324;8.032;2024-03-08T07:54:16;36.30;;;19.92;;
60344;SDS011;46188;52.324;8.032;2024-03-08T07:56:42;29.83;;;17.60;;
60344;SDS011;46188;52.324;8.032;2024-03-08T07:59:07;36.45;;;19.63;;
60344;SDS011;46188;52.324;8.032;2024-03-08T08:01:33;28.80;;;17.70;;
60344;SDS011;46188;52.324;8.032;2024-03-08T08:03:59;30.70;;;18.30;;
60344;SDS011;46188;52.324;8.032;2024-03-08T08:06:26;33.13;;;19.10;;
60344;SDS011;46188;52.324;8.032;2024-03-08T08:08:51;33.45;;;18.10;;
60344;SDS011;46188;52.324;8.032;2024-03-08T08:11:16;35.00;;;18.50;;
60344;SDS011;46188;52.324;8.032;2024-03-08T08:13:42;33.70;;;18.58;;
60344;SDS011;46188;52.324;8.032;2024-03-08T08:16:08;30.02;;;17.63;;
60344;SDS011;46188;52.324;8.032;2024-03-08T08:18:34;34.22;;;19.02;;
60344;SDS011;46188;52.324;8.032;2024-03-08T08:21:00;33.40;;;18.55;;
60344;SDS011;46188;52.324;8.032;2024-03-08T08:23:25;32.20;;;19.48;;
60344;SDS011;46188;52.324;8.032;2024-03-08T08:25:51;31.38;;;18.80;;
60344;SDS011;46188;52.324;8.032;2024-03-08T08:28:16;29.88;;;18.50;;
60344;SDS011;46188;52.324;8.032;2024-03-08T08:30:42;31.77;;;20.08;;
60344;SDS011;46188;52.324;8.032;2024-03-08T08:33:08;28.38;;;18.23;;
60344;SDS011;46188;52.324;8.032;2024-03-08T08:35:33;29.83;;;18.13;;
60344;SDS011;46188;52.324;8.032;2024-03-08T08:37:59;27.33;;;17.67;;
60344;SDS011;46188;52.324;8.032;2024-03-08T08:40:24;30.05;;;18.50;;
60344;SDS011;46188;52.324;8.032;2024-03-08T08:42:50;29.85;;;19.35;;
60344;SDS011;46188;52.324;8.032;2024-03-08T08:45:17;29.52;;;18.23;;
60344;SDS011;46188;52.324;8.032;2024-03-08T08:47:44;28.73;;;17.90;;
60344;SDS011;46188;52.324;8.032;2024-03-08T08:50:10;30.58;;;19.27;;
60344;SDS011;46188;52.324;8.032;2024-03-08T08:52:37;31.42;;;19.77;;
60344;SDS011;46188;52.324;8.032;2024-03-08T08:55:03;30.77;;;18.95;;
60344;SDS011;46188;52.324;8.032;2024-03-08T08:57:29;28.95;;;18.80;;
60344;SDS011;46188;52.324;8.032;2024-03-08T08:59:55;27.73;;;19.33;;
60344;SDS011;46188;52.324;8.032;2024-03-08T09:02:22;29.05;;;18.92;;
60344;SDS011;46188;52.324;8.032;2024-03-08T09:04:47;26.42;;;18.88;;
60344;SDS011;46188;52.324;8.032;2024-03-08T09:07:13;32.08;;;19.05;;
60344;SDS011;46188;52.324;8.032;2024-03-08T09:13:15;28.88;;;18.60;;
60344;SDS011;46188;52.324;8.032;2024-03-08T09:23:07;26.35;;;17.98;;
60344;SDS011;46188;52.324;8.032;2024-03-08T09:25:34;28.95;;;19.02;;
60344;SDS011;46188;52.324;8.032;2024-03-08T09:47:42;32.85;;;18.40;;
60344;SDS011;46188;52.324;8.032;2024-03-08T09:50:08;24.88;;;18.42;;
60344;SDS011;46188;52.324;8.032;2024-03-08T09:52:49;26.30;;;19.58;;
60344;SDS011;46188;52.324;8.032;2024-03-08T09:55:14;24.35;;;18.08;;
60344;SDS011;46188;52.324;8.032;2024-03-08T09:57:51;26.15;;;18.45;;
60344;SDS011;46188;52.324;8.032;2024-03-08T10:00:38;27.20;;;19.88;;
60344;SDS011;46188;52.324;8.032;2024-03-08T10:03:10;24.55;;;18.60;;
60344;SDS011;46188;52.324;8.032;2024-03-08T10:05:35;25.55;;;18.70;;
60344;SDS011;46188;52.324;8.032;2024-03-08T10:08:04;28.48;;;20.20;;
60344;SDS011;46188;52.324;8.032;2024-03-08T10:10:33;29.17;;;20.05;;
60344;SDS011;46188;52.324;8.032;2024-03-08T10:13:07;27.92;;;19.67;;
60344;SDS011;46188;52.324;8.032;2024-03-08T10:15:37;26.17;;;18.75;;
60344;SDS011;46188;52.324;8.032;2024-03-08T10:18:05;25.38;;;17.67;;
60344;SDS011;46188;52.324;8.032;2024-03-08T10:20:31;25.48;;;18.50;;
60344;SDS011;46188;52.324;8.032;2024-03-08T10:23:02;26.95;;;17.95;;
60344;SDS011;46188;52.324;8.032;2024-03-08T10:25:33;28.58;;;19.85;;
60344;SDS011;46188;52.324;8.032;2024-03-08T10:27:59;27.00;;;19.35;;
60344;SDS011;46188;52.324;8.032;2024-03-08T10:30:27;28.27;;;19.48;;
60344;SDS011;46188;52.324;8.032;2024-03-08T10:32:54;24.40;;;18.65;;
60344;SDS011;46188;52.324;8.032;2024-03-08T10:35:23;24.95;;;18.58;;
60344;SDS011;46188;52.324;8.032;2024-03-08T10:37:49;25.08;;;18.38;;
60344;SDS011;46188;52.324;8.032;2024-03-08T10:40:29;28.30;;;17.98;;
60344;SDS011;46188;52.324;8.032;2024-03-08T10:42:58;24.48;;;18.77;;
60344;SDS011;46188;52.324;8.032;2024-03-08T10:54:18;22.90;;;17.77;;
60344;SDS011;46188;52.324;8.032;2024-03-08T10:56:49;24.00;;;17.70;;
60344;SDS011;46188;52.324;8.032;2024-03-08T10:59:16;23.92;;;17.30;;
60344;SDS011;46188;52.324;8.032;2024-03-08T11:01:43;24.17;;;17.73;;
60344;SDS011;46188;52.324;8.032;2024-03-08T11:04:12;24.98;;;19.27;;
60344;SDS011;46188;52.324;8.032;2024-03-08T11:06:41;23.95;;;17.70;;
60344;SDS011;46188;52.324;8.032;2024-03-08T11:15:24;23.38;;;17.58;;
60344;SDS011;46188;52.324;8.032;2024-03-08T11:17:50;25.73;;;19.08;;
60344;SDS011;46188;52.324;8.032;2024-03-08T11:20:49;26.63;;;19.38;;
60344;SDS011;46188;52.324;8.032;2024-03-08T11:23:24;25.25;;;18.45;;
60344;SDS011;46188;52.324;8.032;2024-03-08T11:25:51;21.35;;;16.80;;
60344;SDS011;46188;52.324;8.032;2024-03-08T11:28:21;25.23;;;17.83;;
60344;SDS011;46188;52.324;8.032;2024-03-08T11:33:26;23.15;;;17.60;;
60344;SDS011;46188;52.324;8.032;2024-03-08T11:41:59;24.20;;;16.92;;
60344;SDS011;46188;52.324;8.032;2024-03-08T11:44:27;26.92;;;18.17;;
60344;SDS011;46188;52.324;8.032;2024-03-08T11:46:53;21.77;;;16.60;;
60344;SDS011;46188;52.324;8.032;2024-03-08T11:49:19;22.92;;;16.55;;
60344;SDS011;46188;52.324;8.032;2024-03-08T11:51:44;22.92;;;18.02;;
60344;SDS011;46188;52.324;8.032;2024-03-08T11:54:12;22.17;;;17.73;;
60344;SDS011;46188;52.324;8.032;2024-03-08T11:56:38;24.08;;;18.08;;
60344;SDS011;46188;52.324;8.032;2024-03-08T11:59:03;22.40;;;17.25;;
60344;SDS011;46188;52.324;8.032;2024-03-08T12:01:30;23.63;;;17.30;;
60344;SDS011;46188;52.324;8.032;2024-03-08T12:03:56;23.52;;;17.75;;
60344;SDS011;46188;52.324;8.032;2024-03-08T12:06:24;21.70;;;17.08;;
60344;SDS011;46188;52.324;8.032;2024-03-08T12:08:51;24.55;;;18.10;;
60344;SDS011;46188;52.324;8.032;2024-03-08T12:11:25;21.73;;;17.10;;
60344;SDS011;46188;52.324;8.032;2024-03-08T12:14:08;25.90;;;18.13;;
60344;SDS011;46188;52.324;8.032;2024-03-08T12:16:36;22.95;;;18.05;;
60344;SDS011;46188;52.324;8.032;2024-03-08T12:19:01;21.58;;;17.38;;
60344;SDS011;46188;52.324;8.032;2024-03-08T12:21:30;22.33;;;17.05;;
60344;SDS011;46188;52.324;8.032;2024-03-08T12:24:01;23.08;;;17.70;;
60344;SDS011;46188;52.324;8.032;2024-03-08T12:26:28;25.17;;;17.38;;
60344;SDS011;46188;52.324;8.032;2024-03-08T12:28:56;21.92;;;17.25;;
60344;SDS011;46188;52.324;8.032;2024-03-08T12:31:59;22.15;;;16.45;;
60344;SDS011;46188;52.324;8.032;2024-03-08T12:34:26;22.35;;;17.73;;
60344;SDS011;46188;52.324;8.032;2024-03-08T12:36:57;23.08;;;17.17;;
60344;SDS011;46188;52.324;8.032;2024-03-08T12:39:26;23.45;;;18.63;;
60344;SDS011;46188;52.324;8.032;2024-03-08T12:41:52;25.48;;;18.88;;
60344;SDS011;46188;52.324;8.032;2024-03-08T12:44:18;24.65;;;18.50;;
60344;SDS011;46188;52.324;8.032;2024-03-08T12:46:46;24.13;;;18.83;;
60344;SDS011;46188;52.324;8.032;2024-03-08T12:49:13;22.23;;;17.90;;
60344;SDS011;46188;52.324;8.032;2024-03-08T12:51:42;22.95;;;19.08;;
60344;SDS011;46188;52.324;8.032;2024-03-08T12:54:08;24.52;;;17.73;;
60344;SDS011;46188;52.324;8.032;2024-03-08T12:56:34;24.30;;;18.55;;
60344;SDS011;46188;52.324;8.032;2024-03-08T12:59:00;24.70;;;18.38;;
60344;SDS011;46188;52.324;8.032;2024-03-08T13:01:26;25.23;;;17.60;;
60344;SDS011;46188;52.324;8.032;2024-03-08T13:03:52;21.05;;;16.92;;
60344;SDS011;46188;52.324;8.032;2024-03-08T13:06:19;21.80;;;16.35;;
60344;SDS011;46188;52.324;8.032;2024-03-08T13:08:50;23.25;;;17.23;;
60344;SDS011;46188;52.324;8.032;2024-03-08T13:11:19;21.52;;;16.52;;
60344;SDS011;46188;52.324;8.032;2024-03-08T13:13:45;19.83;;;16.08;;
60344;SDS011;46188;52.324;8.032;2024-03-08T13:16:11;23.40;;;16.13;;
60344;SDS011;46188;52.324;8.032;2024-03-08T13:18:40;23.95;;;16.48;;
60344;SDS011;46188;52.324;8.032;2024-03-08T13:21:06;21.60;;;16.88;;
60344;SDS011;46188;52.324;8.032;2024-03-08T13:23:36;22.10;;;17.15;;
60344;SDS011;46188;52.324;8.032;2024-03-08T13:26:09;25.42;;;17.80;;
60344;SDS011;46188;52.324;8.032;2024-03-08T13:28:40;22.17;;;17.13;;
60344;SDS011;46188;52.324;8.032;2024-03-08T13:31:13;19.35;;;15.57;;
60344;SDS011;46188;52.324;8.032;2024-03-08T13:33:40;23.33;;;16.13;;
60344;SDS011;46188;52.324;8.032;2024-03-08T13:36:07;21.92;;;17.13;;
60344;SDS011;46188;52.324;8.032;2024-03-08T13:38:40;23.45;;;17.42;;
60344;SDS011;46188;52.324;8.032;2024-03-08T13:41:11;22.17;;;16.45;;
60344;SDS011;46188;52.324;8.032;2024-03-08T13:43:39;22.45;;;16.77;;
60344;SDS011;46188;52.324;8.032;2024-03-08T13:46:05;21.42;;;16.05;;
60344;SDS011;46188;52.324;8.032;2024-03-08T13:48:32;20.13;;;16.02;;
60344;SDS011;46188;52.324;8.032;2024-03-08T13:50:58;22.67;;;16.42;;
60344;SDS011;46188;52.324;8.032;2024-03-08T13:53:23;22.55;;;16.65;;
60344;SDS011;46188;52.324;8.032;2024-03-08T13:55:48;22.38;;;16.10;;
60344;SDS011;46188;52.324;8.032;2024-03-08T13:58:15;22.05;;;16.50;;
60344;SDS011;46188;52.324;8.032;2024-03-08T14:00:40;21.45;;;16.58;;
60344;SDS011;46188;52.324;8.032;2024-03-08T14:03:08;21.35;;;16.05;;
60344;SDS011;46188;52.324;8.032;2024-03-08T14:05:35;22.45;;;17.50;;
60344;SDS011;46188;52.324;8.032;2024-03-08T14:08:01;22.33;;;15.07;;
60344;SDS011;46188;52.324;8.032;2024-03-08T14:10:32;21.58;;;16.70;;
60344;SDS011;46188;52.324;8.032;2024-03-08T14:12:57;21.08;;;16.05;;
60344;SDS011;46188;52.324;8.032;2024-03-08T14:15:23;20.92;;;15.93;;
60344;SDS011;46188;52.324;8.032;2024-03-08T14:17:54;22.10;;;16.48;;
60344;SDS011;46188;52.324;8.032;2024-03-08T14:20:21;19.67;;;16.35;;
60344;SDS011;46188;52.324;8.032;2024-03-08T14:22:53;21.23;;;16.67;;
60344;SDS011;46188;52.324;8.032;2024-03-08T14:25:19;24.73;;;17.73;;
60344;SDS011;46188;52.324;8.032;2024-03-08T14:27:46;20.75;;;15.82;;
60344;SDS011;46188;52.324;8.032;2024-03-08T14:30:12;22.20;;;15.73;;
60344;SDS011;46188;52.324;8.032;2024-03-08T14:32:40;23.30;;;17.52;;
60344;SDS011;46188;52.324;8.032;2024-03-08T14:35:06;23.52;;;16.90;;
60344;SDS011;46188;52.324;8.032;2024-03-08T14:37:32;24.73;;;16.02;;
60344;SDS011;46188;52.324;8.032;2024-03-08T14:39:57;20.92;;;15.70;;
60344;SDS011;46188;52.324;8.032;2024-03-08T14:42:23;22.13;;;15.57;;
60344;SDS011;46188;52.324;8.032;2024-03-08T14:44:49;21.13;;;16.30;;
60344;SDS011;46188;52.324;8.032;2024-03-08T14:47:16;20.73;;;15.50;;
60344;SDS011;46188;52.324;8.032;2024-03-08T14:49:42;20.85;;;15.00;;
60344;SDS011;46188;52.324;8.032;2024-03-08T14:52:07;22.35;;;15.60;;
60344;SDS011;46188;52.324;8.032;2024-03-08T14:54:52;24.30;;;16.13;;
60344;SDS011;46188;52.324;8.032;2024-03-08T14:57:17;20.23;;;14.60;;
60344;SDS011;46188;52.324;8.032;2024-03-08T14:59:42;21.85;;;14.50;;
60344;SDS011;46188;52.324;8.032;2024-03-08T15:02:08;21.75;;;15.82;;
60344;SDS011;46188;52.324;8.032;2024-03-08T15:04:35;22.52;;;16.27;;
60344;SDS011;46188;52.324;8.032;2024-03-08T15:07:00;19.33;;;15.25;;
60344;SDS011;46188;52.324;8.032;2024-03-08T15:09:27;21.83;;;14.60;;
60344;SDS011;46188;52.324;8.032;2024-03-08T15:11:52;20.83;;;15.18;;
60344;SDS011;46188;52.324;8.032;2024-03-08T15:14:19;24.65;;;15.35;;